Terminal Aerodrome Forecast
Issued by NWS

Home | Current Version | Previous Version | Text Only | Print | Product List | Glossary On
Versions: 1 2 3 4 5 6 7 8 9 10 11
000
FTUS45 KVEF 251100
TAFDAG
TAF
KDAG 251120Z 2512/2612 24026G36KT P6SM SKC
     FM251600 34012KT P6SM SCT060
     FM260300 28010KT P6SM FEW060=

USA.gov is the U.S. government's official web portal to all federal, state and local government web resources and services.